EZY85HD EGKK-EGNS
Flight info
| Callsign | EZY85HD |
|---|---|
| Flight time | N/A |
| Altitude | 38000 |
| Route | LAM L10 BPK UN601 LESTA UP6 RODOL UL28 AGLIL M146 LUSOD DCT IOM |
| Aircraft | A319/M-SDE3FGHIRWY/LB1 |
Departure
| Time | 2026-05-04 16:04 |
|---|---|
| Airport | London Gatwick Airport (EGKK) |
Arrival
| Time | N/A |
|---|---|
| Airport | Isle of Man Airport (EGNS) |
| Time | Latitude | Longitude | Altitude | Speed | Heading |
|---|---|---|---|---|---|
| 2026-05-04 15:40 | 51.15378 | -0.18892 | 215 ft | 0 kts | 258° |
| 2026-05-04 15:54 | 51.15380 | -0.18873 | 204 ft | 4 kts | 258° |
| 2026-05-04 15:54 | 51.15386 | -0.18831 | 211 ft | 4 kts | 258° |
| 2026-05-04 15:55 | 51.15391 | -0.18798 | 212 ft | 4 kts | 241° |
| 2026-05-04 15:55 | 51.15406 | -0.18778 | 215 ft | 4 kts | 172° |
| 2026-05-04 15:55 | 51.15427 | -0.18784 | 206 ft | 1 kts | 167° |
| 2026-05-04 15:58 | 51.15416 | -0.18781 | 214 ft | 4 kts | 168° |
| 2026-05-04 15:58 | 51.15371 | -0.18765 | 207 ft | 10 kts | 167° |
| 2026-05-04 15:58 | 51.15288 | -0.18735 | 204 ft | 15 kts | 167° |
| 2026-05-04 15:58 | 51.15171 | -0.18697 | 206 ft | 17 kts | 178° |
| 2026-05-04 15:59 | 51.15115 | -0.18842 | 214 ft | 18 kts | 257° |
| 2026-05-04 15:59 | 51.15085 | -0.19063 | 211 ft | 22 kts | 258° |
| 2026-05-04 15:59 | 51.15051 | -0.19303 | 206 ft | 22 kts | 257° |
| 2026-05-04 15:59 | 51.15017 | -0.19552 | 210 ft | 25 kts | 257° |
| 2026-05-04 16:00 | 51.14978 | -0.19840 | 207 ft | 27 kts | 258° |
| 2026-05-04 16:00 | 51.14936 | -0.20138 | 207 ft | 28 kts | 257° |
| 2026-05-04 16:00 | 51.14894 | -0.20442 | 208 ft | 28 kts | 258° |
| 2026-05-04 16:00 | 51.14852 | -0.20748 | 209 ft | 28 kts | 257° |
| 2026-05-04 16:01 | 51.14810 | -0.21054 | 211 ft | 28 kts | 257° |
| 2026-05-04 16:01 | 51.14761 | -0.21344 | 204 ft | 20 kts | 256° |
| 2026-05-04 16:01 | 51.14677 | -0.21377 | 207 ft | 15 kts | 140° |
| 2026-05-04 16:01 | 51.14614 | -0.21326 | 204 ft | 6 kts | 167° |
| 2026-05-04 16:02 | 51.14612 | -0.21325 | 204 ft | 0 kts | 167° |
| 2026-05-04 16:03 | 51.14594 | -0.21318 | 209 ft | 9 kts | 165° |
| 2026-05-04 16:03 | 51.14520 | -0.21204 | 207 ft | 21 kts | 100° |
| 2026-05-04 16:03 | 51.14525 | -0.21130 | 211 ft | 0 kts | 77° |
| 2026-05-04 16:03 | 51.14532 | -0.21081 | 203 ft | 25 kts | 77° |
| 2026-05-04 16:04 | 51.14630 | -0.20372 | 210 ft | 103 kts | 78° |
| 2026-05-04 16:04 | 51.15043 | -0.17259 | 946 ft | 157 kts | 78° |
| 2026-05-04 16:04 | 51.15270 | -0.15521 | 1569 ft | 167 kts | 78° |
| 2026-05-04 16:05 | 51.15538 | -0.13596 | 2004 ft | 189 kts | 77° |
| 2026-05-04 16:05 | 51.15841 | -0.11432 | 2417 ft | 211 kts | 77° |
| 2026-05-04 16:05 | 51.16323 | -0.08039 | 3085 ft | 246 kts | 75° |
| 2026-05-04 16:06 | 51.17128 | -0.05567 | 3887 ft | 258 kts | 52° |
| 2026-05-04 16:06 | 51.20129 | 0.00591 | 6555 ft | 271 kts | 51° |
| 2026-05-04 16:07 | 51.21687 | 0.03814 | 7812 ft | 278 kts | 52° |
| 2026-05-04 16:07 | 51.25063 | 0.11617 | 10482 ft | 294 kts | 73° |
| 2026-05-04 16:08 | 51.25494 | 0.14821 | 11347 ft | 297 kts | 80° |
| 2026-05-04 16:08 | 51.26651 | 0.24754 | 13892 ft | 309 kts | 80° |
| 2026-05-04 16:09 | 51.28057 | 0.31256 | 15246 ft | 318 kts | 54° |
| 2026-05-04 16:09 | 51.31770 | 0.34876 | 16331 ft | 326 kts | 9° |
| 2026-05-04 16:10 | 51.36219 | 0.33706 | 17794 ft | 333 kts | 336° |
| 2026-05-04 16:11 | 51.42775 | 0.29431 | 19755 ft | 345 kts | 336° |
| 2026-05-04 16:11 | 51.45006 | 0.27974 | 20409 ft | 348 kts | 335° |
| 2026-05-04 16:12 | 51.51822 | 0.23521 | 22344 ft | 358 kts | 335° |
| 2026-05-04 16:12 | 51.58834 | 0.18949 | 24158 ft | 367 kts | 335° |
| 2026-05-04 16:13 | 51.63425 | 0.15346 | 25269 ft | 368 kts | 321° |
| 2026-05-04 16:13 | 51.66997 | 0.09316 | 25787 ft | 385 kts | 299° |
| 2026-05-04 16:14 | 51.69974 | 0.01787 | 26021 ft | 412 kts | 299° |
| 2026-05-04 16:14 | 51.73187 | -0.06269 | 26052 ft | 441 kts | 301° |
| 2026-05-04 16:15 | 51.80611 | -0.16055 | 26054 ft | 483 kts | 327° |
| 2026-05-04 16:16 | 51.86504 | -0.21636 | 26056 ft | 498 kts | 327° |
| 2026-05-04 16:16 | 51.95454 | -0.30169 | 27472 ft | 489 kts | 327° |
| 2026-05-04 16:17 | 52.01251 | -0.35688 | 28813 ft | 477 kts | 327° |
| 2026-05-04 16:18 | 52.09693 | -0.43711 | 30803 ft | 460 kts | 327° |
| 2026-05-04 16:18 | 52.12442 | -0.46320 | 31437 ft | 455 kts | 328° |
| 2026-05-04 16:19 | 52.20494 | -0.53955 | 33450 ft | 438 kts | 328° |
| 2026-05-04 16:19 | 52.25696 | -0.58884 | 34756 ft | 426 kts | 328° |
| 2026-05-04 16:20 | 52.33137 | -0.65928 | 36654 ft | 401 kts | 329° |
| 2026-05-04 16:20 | 52.37850 | -0.70385 | 37971 ft | 381 kts | 329° |
| 2026-05-04 16:21 | 52.44416 | -0.76581 | 39589 ft | 344 kts | 328° |